Time;durP1;ratioP1;P1;durP2;ratioP2;P2;SDS_P1;SDS_P2;PMS_P1;PMS_P2;Temp;Humidity;BMP_temperature;BMP_pressure;BME280_temperature;BME280_humidity;BME280_pressure;Samples;Min_cycle;Max_cycle;Signal;HPM_P1;HPM_P2
2023/04/10 00:02:21;;;;;;;;;;;7.80;99.90;;;;;;6240690;22;20045;-87
2023/04/10 00:04:48;;;;;;;27.40;14.20;;;7.80;99.90;;;;;;6240758;22;19971;-87
2023/04/10 00:07:14;;;;;;;27.02;14.90;;;7.70;99.90;;;;;;6265330;22;20562;-87
2023/04/10 00:09:40;;;;;;;27.70;13.93;;;7.80;99.90;;;;;;6240345;22;20018;-87
2023/04/10 00:12:06;;;;;;;27.90;13.83;;;7.80;99.90;;;;;;6290834;22;20021;-87
2023/04/10 00:14:31;;;;;;;26.15;14.20;;;7.80;99.90;;;;;;6265418;22;20097;-87
2023/04/10 00:16:57;;;;;;;27.53;14.73;;;7.70;99.90;;;;;;6400995;22;20049;-87
2023/04/10 00:19:23;;;;;;;23.77;14.47;;;7.70;99.90;;;;;;6240252;22;20226;-87
2023/04/10 00:21:49;;;;;;;26.80;14.23;;;7.70;99.90;;;;;;6265449;22;20018;-87
2023/04/10 00:24:14;;;;;;;24.33;14.80;;;7.70;99.90;;;;;;6240217;22;20022;-88
2023/04/10 00:26:40;;;;;;;27.43;14.63;;;7.70;99.90;;;;;;6266243;22;20014;-87
2023/04/10 00:29:07;;;;;;;26.77;14.60;;;7.70;99.90;;;;;;6240187;22;20028;-86
2023/04/10 00:31:32;;;;;;;30.63;15.65;;;7.60;99.90;;;;;;6240269;22;20021;-86
2023/04/10 00:33:58;;;;;;;26.17;15.80;;;7.70;99.90;;;;;;6401199;22;20014;-87
2023/04/10 00:36:25;;;;;;;27.00;15.30;;;7.60;99.90;;;;;;6239796;22;20053;-87
2023/04/10 00:38:51;;;;;;;29.85;15.23;;;7.50;99.90;;;;;;6401307;22;20029;-88
2023/04/10 00:41:17;;;;;;;30.97;15.13;;;7.50;99.90;;;;;;6265111;22;20006;-88
2023/04/10 00:43:43;;;;;;;32.33;16.43;;;7.50;99.90;;;;;;6291185;22;20342;-87
2023/04/10 00:46:10;;;;;;;27.55;14.07;;;7.50;99.90;;;;;;6240026;22;20013;-87
2023/04/10 00:48:35;;;;;;;29.73;15.57;;;7.40;99.90;;;;;;6400864;22;20086;-86
2023/04/10 00:51:02;;;;;;;29.80;15.57;;;7.50;99.90;;;;;;6290726;22;20018;-89
2023/04/10 00:53:28;;;;;;;24.63;14.77;;;7.40;99.90;;;;;;6265652;22;20339;-87
2023/04/10 00:55:55;;;;;;;30.97;16.27;;;7.50;99.90;;;;;;6241568;22;20025;-87
2023/04/10 00:58:21;;;;;;;26.77;15.25;;;7.40;99.90;;;;;;6346833;22;20761;-87
2023/04/10 01:00:47;;;;;;;26.80;14.87;;;7.40;99.90;;;;;;6403077;22;20013;-90
2023/04/10 01:03:16;;;;;;;28.70;15.93;;;7.40;99.90;;;;;;6266641;22;20085;-88
2023/04/10 01:06:08;;;;;;;30.60;16.38;;;7.40;99.90;;;;;;6402977;22;20243;-86
2023/04/10 01:09:03;;;;;;;29.20;15.52;;;7.40;99.90;;;;;;6266689;22;20353;-86
2023/04/10 01:11:51;;;;;;;32.28;16.40;;;7.40;99.90;;;;;;6266264;22;20028;-88
2023/04/10 01:14:46;;;;;;;29.42;16.17;;;7.30;99.90;;;;;;6402745;22;20017;-87
2023/04/10 01:17:30;;;;;;;31.85;17.80;;;7.30;99.90;;;;;;6266227;22;20022;-86
2023/04/10 01:20:11;;;;;;;30.95;17.92;;;7.30;99.90;;;;;;6266214;22;20453;-87
2023/04/10 01:22:59;;;;;;;30.60;17.35;;;7.20;99.90;;;;;;6266260;22;20075;-88
2023/04/10 01:25:52;;;;;;;32.25;16.92;;;7.20;99.90;;;;;;6266436;22;20049;-87
2023/04/10 01:28:18;;;;;;;30.83;16.40;;;7.10;99.90;;;;;;6267122;22;20022;-87
2023/04/10 01:30:46;;;;;;;36.53;18.80;;;7.10;99.90;;;;;;6267161;22;20067;-87
2023/04/10 01:33:17;;;;;;;29.92;16.83;;;7.10;99.90;;;;;;6403008;22;20014;-89
2023/04/10 01:35:48;;;;;;;35.45;18.65;;;7.00;99.90;;;;;;6266455;22;20041;-87
2023/04/10 01:38:18;;;;;;;32.85;18.17;;;7.10;99.90;;;;;;6292741;22;20029;-91
2023/04/10 01:40:49;;;;;;;33.83;17.63;;;7.10;99.90;;;;;;6266522;22;20022;-86
2023/04/10 01:43:17;;;;;;;32.53;17.25;;;7.10;99.90;;;;;;6243238;22;20062;-86
2023/04/10 01:45:45;;;;;;;32.30;18.50;;;7.00;99.90;;;;;;6267432;22;20125;-88
2023/04/10 01:48:11;;;;;;;33.90;18.88;;;7.00;99.90;;;;;;6276047;22;20486;-86
2023/04/10 01:50:38;;;;;;;32.47;17.00;;;7.00;99.90;;;;;;6250205;22;20486;-89
2023/04/10 01:53:05;;;;;;;32.03;17.55;;;7.00;99.90;;;;;;6296604;22;20010;-88
2023/04/10 01:55:33;;;;;;;33.05;18.08;;;7.00;99.90;;;;;;6402952;22;20063;-87
2023/04/10 01:58:00;;;;;;;29.92;17.08;;;6.90;99.90;;;;;;6266034;22;20076;-87
2023/04/10 02:00:26;;;;;;;34.05;18.30;;;6.90;99.90;;;;;;6267272;22;20014;-88
2023/04/10 02:02:52;;;;;;;33.30;18.23;;;6.80;99.90;;;;;;6402206;22;20032;-87
2023/04/10 02:05:18;;;;;;;33.33;18.47;;;6.80;99.90;;;;;;6401978;22;20053;-88
2023/04/10 02:08:26;;;;;;;32.38;17.38;;;6.80;99.90;;;;;;6266322;22;20017;-87
2023/04/10 02:11:10;;;;;;;34.38;18.83;;;6.80;99.90;;;;;;6291195;22;20029;-89
2023/04/10 02:13:39;;;;;;;32.95;18.95;;;6.80;99.90;;;;;;6265889;22;20017;-87
2023/04/10 02:16:10;;;;;;;33.13;18.17;;;6.70;99.90;;;;;;6265950;22;20044;-87
2023/04/10 02:18:37;;;;;;;33.13;18.05;;;6.70;99.90;;;;;;6402117;22;20013;-87
2023/04/10 02:21:03;;;;;;;;;;;6.70;99.90;;;;;;6267232;22;20042;-87
2023/04/10 02:23:29;;;;;;;33.75;19.25;;;6.70;99.90;;;;;;6267048;22;19914;-87
2023/04/10 02:25:56;;;;;;;30.97;19.00;;;6.70;99.90;;;;;;6266294;22;20088;-88
2023/04/10 02:28:21;;;;;;;;;;;6.70;99.90;;;;;;6241215;22;20438;-90
2023/04/10 02:30:47;;;;;;;34.25;19.23;;;6.70;99.90;;;;;;6241133;22;19914;-90
2023/04/10 02:33:13;;;;;;;34.60;19.40;;;6.60;99.90;;;;;;6266405;22;20006;-87
2023/04/10 02:35:42;;;;;;;36.27;19.03;;;6.70;99.90;;;;;;6266772;22;20017;-87
2023/04/10 02:38:08;;;;;;;33.97;19.17;;;6.60;99.90;;;;;;6240872;22;20014;-90
2023/04/10 02:40:34;;;;;;;30.57;17.67;;;6.60;99.90;;;;;;6241044;22;20020;-87
2023/04/10 02:43:00;;;;;;;30.40;18.98;;;6.60;99.90;;;;;;6215771;22;20021;-87
2023/04/10 02:45:25;;;;;;;33.93;19.03;;;6.60;99.90;;;;;;6266376;22;20014;-87
2023/04/10 02:47:51;;;;;;;30.80;17.77;;;6.60;99.90;;;;;;6214996;22;20378;-88
2023/04/10 02:50:31;;;;;;;30.80;17.50;;;6.60;99.90;;;;;;6241773;22;20342;-86
2023/04/10 02:53:09;;;;;;;32.03;17.77;;;6.60;99.90;;;;;;6241096;22;20018;-88
2023/04/10 02:55:35;;;;;;;31.55;17.77;;;6.60;99.90;;;;;;6241720;22;20018;-83
2023/04/10 02:58:00;;;;;;;34.60;17.70;;;6.60;99.90;;;;;;6241699;22;20101;-77
2023/04/10 03:00:26;;;;;;;34.60;17.80;;;6.50;99.90;;;;;;6241698;22;20064;-77
2023/04/10 03:02:52;;;;;;;30.17;17.23;;;6.50;99.90;;;;;;6241951;22;20052;-80
2023/04/10 03:05:18;;;;;;;30.57;17.87;;;6.50;99.90;;;;;;6402247;22;20439;-77
2023/04/10 03:07:43;;;;;;;32.30;17.20;;;6.50;99.90;;;;;;6402815;22;20021;-77
2023/04/10 03:10:09;;;;;;;32.70;17.30;;;6.50;99.90;;;;;;6403616;22;20022;-77
2023/04/10 03:12:35;;;;;;;29.33;16.27;;;6.50;99.90;;;;;;6241626;22;20076;-82
2023/04/10 03:15:00;;;;;;;32.57;16.77;;;6.50;99.90;;;;;;6403101;22;20462;-86
2023/04/10 03:17:26;;;;;;;30.07;17.00;;;6.50;99.90;;;;;;6402624;22;20101;-76
2023/04/10 03:19:53;;;;;;;30.60;16.40;;;6.50;99.90;;;;;;6241226;22;20014;-77
2023/04/10 03:22:18;;;;;;;27.92;15.75;;;6.50;99.90;;;;;;6241923;22;20025;-78
2023/04/10 03:24:44;;;;;;;30.07;15.70;;;6.50;99.90;;;;;;6292462;22;20021;-81
2023/04/10 03:27:09;;;;;;;31.07;16.03;;;6.50;99.90;;;;;;6216494;22;20377;-81
2023/04/10 03:29:35;;;;;;;28.53;16.17;;;6.50;99.90;;;;;;6241126;22;20010;-82
2023/04/10 03:32:01;;;;;;;32.30;16.30;;;6.40;99.90;;;;;;6241824;22;20403;-82
2023/04/10 03:34:26;;;;;;;29.97;16.43;;;6.40;99.90;;;;;;6267476;22;20327;-82
2023/04/10 03:36:52;;;;;;;31.17;16.37;;;6.40;99.90;;;;;;6402389;22;20014;-81
2023/04/10 03:39:18;;;;;;;27.30;14.33;;;6.40;99.90;;;;;;6242895;22;20013;-82
2023/04/10 03:41:43;;;;;;;28.97;15.87;;;6.40;99.90;;;;;;6292511;22;20020;-81
2023/04/10 03:44:09;;;;;;;27.57;15.37;;;6.40;99.90;;;;;;6266699;22;20088;-81
2023/04/10 03:46:35;;;;;;;28.10;15.10;;;6.40;99.90;;;;;;6266739;22;20088;-82
2023/04/10 03:49:00;;;;;;;27.70;14.70;;;6.40;99.90;;;;;;6292239;22;20021;-81
2023/04/10 03:51:26;;;;;;;27.00;14.93;;;6.40;99.90;;;;;;6241817;22;20058;-81
2023/04/10 03:53:52;;;;;;;28.40;16.07;;;6.40;99.90;;;;;;6241216;22;20089;-78
2023/04/10 03:56:17;;;;;;;27.83;15.47;;;6.40;99.90;;;;;;6291949;22;20443;-77
2023/04/10 03:58:43;;;;;;;27.40;14.80;;;6.30;99.90;;;;;;6266663;22;20070;-78
2023/04/10 04:01:09;;;;;;;27.23;15.80;;;6.30;99.90;;;;;;6293366;22;20071;-87
2023/04/10 04:03:34;;;;;;;27.37;13.80;;;6.30;99.90;;;;;;6293100;22;20063;-88
2023/04/10 04:06:00;;;;;;;30.80;15.03;;;6.20;99.90;;;;;;6402486;22;20070;-92
2023/04/10 04:10:55;;;;;;;28.75;14.90;;;6.00;99.90;;;;;;6400339;22;20022;-81
2023/04/10 04:13:20;;;;;;;26.33;15.37;;;6.00;99.90;;;;;;6216342;22;20062;-82
2023/04/10 04:15:46;;;;;;;29.40;15.27;;;5.90;99.90;;;;;;6241670;22;20089;-82
2023/04/10 04:18:12;;;;;;;29.90;15.95;;;5.90;99.90;;;;;;6266947;22;20018;-81
2023/04/10 04:20:44;;;;;;;27.17;15.50;;;5.90;99.90;;;;;;6216302;22;20006;-81
2023/04/10 04:23:10;;;;;;;32.90;16.00;;;5.90;99.90;;;;;;6241448;22;20025;-82
2023/04/10 04:25:36;;;;;;;31.30;16.50;;;5.80;99.90;;;;;;6216499;22;20017;-81
2023/04/10 04:28:01;;;;;;;31.97;17.13;;;5.80;99.90;;;;;;6191508;22;20045;-81
2023/04/10 04:30:27;;;;;;;30.57;17.43;;;5.80;99.90;;;;;;6240572;22;20014;-82
2023/04/10 04:32:53;;;;;;;32.93;18.57;;;5.80;99.90;;;;;;6266753;22;20028;-82
2023/04/10 04:35:18;;;;;;;31.37;17.13;;;5.90;99.90;;;;;;6241526;22;20037;-82
2023/04/10 04:40:19;;;;;;;30.33;17.50;;;5.90;99.90;;;;;;6399969;22;20029;-86
2023/04/10 04:42:45;;;;;;;36.87;18.13;;;5.90;99.90;;;;;;6214988;22;20014;-87
2023/04/10 04:45:11;;;;;;;33.47;18.37;;;5.90;99.90;;;;;;6290600;22;20045;-88
2023/04/10 04:47:36;;;;;;;36.57;19.87;;;5.90;99.90;;;;;;6214667;22;20033;-85
2023/04/10 04:50:02;;;;;;;34.13;19.20;;;5.90;99.90;;;;;;6239960;22;20010;-86
2023/04/10 04:52:28;;;;;;;36.05;20.50;;;6.00;99.90;;;;;;6265564;22;20342;-90
2023/04/10 04:54:54;;;;;;;36.67;19.20;;;5.90;99.90;;;;;;6214869;22;20010;-85
2023/04/10 04:57:20;;;;;;;34.50;19.03;;;5.90;99.90;;;;;;6215101;22;20447;-87
2023/04/10 04:59:46;;;;;;;33.60;19.70;;;6.00;99.90;;;;;;6239931;22;20010;-87
2023/04/10 05:02:11;;;;;;;35.47;18.43;;;6.00;99.90;;;;;;6401039;22;20025;-87
2023/04/10 05:04:37;;;;;;;35.70;19.43;;;6.00;99.90;;;;;;6290784;22;20507;-91
2023/04/10 05:07:03;;;;;;;35.80;20.10;;;6.00;99.90;;;;;;6291604;22;20022;-88
2023/04/10 05:09:29;;;;;;;39.63;20.17;;;6.00;99.90;;;;;;6290844;22;20014;-88
2023/04/10 05:11:54;;;;;;;36.80;19.97;;;6.00;99.90;;;;;;6240056;22;20022;-86
2023/04/10 05:14:21;;;;;;;37.70;20.77;;;6.10;99.90;;;;;;6265775;22;20251;-87
2023/04/10 05:16:46;;;;;;;37.75;20.15;;;6.10;99.90;;;;;;6265017;22;20465;-86
2023/04/10 05:19:12;;;;;;;36.87;20.90;;;6.10;99.90;;;;;;6400962;22;20049;-86
2023/04/10 05:21:38;;;;;;;40.73;21.50;;;6.20;99.90;;;;;;6400744;22;20047;-86
2023/04/10 05:24:03;;;;;;;40.60;21.03;;;6.20;99.90;;;;;;6240083;22;20447;-87
2023/04/10 05:26:29;;;;;;;38.13;20.50;;;6.30;99.90;;;;;;6265202;22;20360;-87
2023/04/10 05:28:55;;;;;;;41.97;21.73;;;6.40;99.90;;;;;;6240474;22;20049;-86
2023/04/10 05:31:20;;;;;;;37.73;21.20;;;6.40;99.90;;;;;;6290429;22;20028;-88
2023/04/10 05:33:46;;;;;;;36.13;21.03;;;6.50;99.90;;;;;;6265170;22;20021;-87
2023/04/10 05:36:12;;;;;;;40.27;20.90;;;6.50;99.90;;;;;;6290932;22;20040;-87
2023/04/10 05:38:37;;;;;;;45.17;22.93;;;6.60;99.90;;;;;;6291038;22;20021;-87
2023/04/10 05:41:03;;;;;;;42.07;22.67;;;6.60;99.90;;;;;;6402113;22;20033;-90
2023/04/10 05:43:29;;;;;;;42.23;21.53;;;6.70;99.90;;;;;;6241543;22;20455;-90
2023/04/10 05:45:54;;;;;;;44.63;23.20;;;6.70;99.90;;;;;;6241345;22;20447;-87
2023/04/10 05:48:20;;;;;;;39.40;21.57;;;6.70;99.90;;;;;;6265771;22;20477;-86
2023/04/10 05:50:46;;;;;;;46.30;22.77;;;6.80;99.90;;;;;;6242620;22;20021;-86
2023/04/10 05:53:13;;;;;;;41.37;22.53;;;6.90;99.90;;;;;;6267903;22;20320;-87
2023/04/10 05:55:39;;;;;;;;;;;6.90;99.90;;;;;;6292618;22;20066;-89
2023/04/10 05:58:04;;;;;;;39.33;22.45;;;7.00;99.90;;;;;;6266780;22;19914;-87
2023/04/10 06:00:30;;;;;;;38.83;22.77;;;7.00;99.90;;;;;;6403529;22;20018;-90
2023/04/10 06:02:56;;;;;;;44.37;24.00;;;7.00;99.90;;;;;;6293262;22;20386;-87
2023/04/10 06:05:21;;;;;;;40.47;21.93;;;7.10;99.90;;;;;;6293316;22;20053;-86
2023/04/10 06:07:47;;;;;;;43.63;24.73;;;7.10;99.90;;;;;;6292739;22;20018;-88
2023/04/10 06:10:13;;;;;;;38.07;21.90;;;7.20;99.90;;;;;;6293231;22;20017;-88
2023/04/10 06:12:38;;;;;;;46.40;23.53;;;7.20;99.90;;;;;;6292114;22;20018;-86
2023/04/10 06:15:04;;;;;;;40.33;22.57;;;7.20;99.90;;;;;;6216450;22;20018;-93
2023/04/10 06:21:06;;;;;;;41.50;22.17;;;7.30;99.90;;;;;;6329302;22;20319;-83
2023/04/10 06:24:24;;;;;;;41.67;22.48;;;7.40;99.90;;;;;;6242462;22;20017;-87
2023/04/10 06:26:50;;;;;;;43.28;23.02;;;7.50;99.90;;;;;;6241391;22;20014;-85
2023/04/10 06:29:16;;;;;;;43.47;23.27;;;7.60;99.90;;;;;;6241175;22;20025;-86
2023/04/10 06:31:41;;;;;;;40.53;22.23;;;7.70;99.90;;;;;;6241558;22;20010;-86
2023/04/10 06:34:08;;;;;;;48.63;23.50;;;7.80;99.90;;;;;;6239397;22;20049;-86
2023/04/10 06:36:33;;;;;;;;;;;8.00;99.90;;;;;;6242580;22;20070;-88
2023/04/10 06:41:37;;;;;;;41.08;21.13;;;8.60;99.90;;;;;;6399874;22;20045;-83
2023/04/10 06:44:03;;;;;;;38.20;22.00;;;8.80;99.90;;;;;;6263396;22;20345;-82
2023/04/10 06:46:29;;;;;;;37.50;21.53;;;8.80;99.90;;;;;;6239223;22;20013;-81
2023/04/10 06:48:54;;;;;;;39.37;22.53;;;8.80;99.90;;;;;;6238473;22;20323;-83
2023/04/10 06:51:21;;;;;;;41.07;22.57;;;8.80;99.90;;;;;;6188501;22;20032;-82
2023/04/10 06:53:50;;;;;;;37.60;21.67;;;8.80;99.90;;;;;;6239590;22;20018;-83
2023/04/10 06:56:15;;;;;;;38.20;21.83;;;8.80;99.90;;;;;;6291775;22;20063;-84
2023/04/10 06:58:41;;;;;;;37.67;21.90;;;8.90;99.90;;;;;;6215578;22;20373;-84
2023/04/10 07:01:07;;;;;;;42.03;22.10;;;9.00;99.90;;;;;;6215636;22;20021;-82
2023/04/10 07:03:33;;;;;;;39.60;21.43;;;9.20;99.90;;;;;;6267137;22;20081;-84
2023/04/10 07:06:00;;;;;;;40.03;22.47;;;9.30;99.90;;;;;;6241003;22;20259;-85
2023/04/10 07:08:26;;;;;;;40.80;20.95;;;9.70;99.90;;;;;;6241692;22;20375;-82
2023/04/10 07:10:52;;;;;;;37.93;20.83;;;10.00;99.90;;;;;;6242263;22;20051;-83
2023/04/10 07:13:17;;;;;;;38.73;21.53;;;10.20;99.90;;;;;;6240863;22;20010;-82
2023/04/10 07:15:43;;;;;;;35.70;20.87;;;10.10;99.90;;;;;;6290201;22;20018;-83
2023/04/10 07:18:09;;;;;;;37.43;20.43;;;10.00;99.90;;;;;;6289855;22;20013;-82
2023/04/10 07:20:34;;;;;;;38.37;20.83;;;9.80;99.90;;;;;;6399959;22;20450;-82
2023/04/10 07:23:00;;;;;;;37.57;21.27;;;9.70;99.90;;;;;;6400352;22;20014;-82
2023/04/10 07:25:26;;;;;;;35.67;21.40;;;9.50;99.90;;;;;;6265796;22;20054;-82
2023/04/10 07:27:51;;;;;;;37.20;20.47;;;9.60;99.90;;;;;;6401545;22;20022;-83
2023/04/10 07:30:18;;;;;;;36.20;20.97;;;10.00;99.90;;;;;;6241435;22;20091;-83
2023/04/10 07:32:44;;;;;;;36.97;20.80;;;10.30;99.90;;;;;;6241265;22;20017;-82
2023/04/10 07:35:10;;;;;;;36.22;18.88;;;10.50;99.90;;;;;;6216627;22;20009;-82
2023/04/10 07:37:36;;;;;;;40.03;20.47;;;10.60;99.90;;;;;;6241321;22;20056;-83
2023/04/10 07:40:02;;;;;;;37.00;20.47;;;10.70;99.90;;;;;;6234702;22;20070;-86
2023/04/10 07:42:28;;;;;;;38.92;20.85;;;10.80;99.90;;;;;;6265968;22;20060;-87
2023/04/10 07:44:53;;;;;;;38.33;21.43;;;10.80;99.90;;;;;;6265704;22;20018;-85
2023/04/10 07:47:19;;;;;;;33.80;20.40;;;10.70;99.90;;;;;;6291950;22;20564;-87
2023/04/10 07:49:45;;;;;;;36.17;20.43;;;10.60;99.90;;;;;;6190198;22;20333;-85
2023/04/10 07:52:10;;;;;;;38.83;20.63;;;10.50;99.90;;;;;;6215558;22;20014;-86
2023/04/10 07:54:36;;;;;;;33.80;20.40;;;10.40;99.90;;;;;;6240126;22;20017;-87
2023/04/10 07:57:02;;;;;;;36.70;19.63;;;10.40;99.90;;;;;;6241045;22;20053;-86
2023/04/10 07:59:27;;;;;;;37.43;19.40;;;10.40;99.90;;;;;;6266586;22;20026;-87
2023/04/10 08:01:54;;;;;;;36.90;19.33;;;10.60;99.90;;;;;;6240992;22;20018;-88
2023/04/10 08:04:20;;;;;;;34.10;18.30;;;10.60;99.90;;;;;;6265522;22;20014;-87
2023/04/10 08:06:45;;;;;;;35.03;19.20;;;10.80;99.90;;;;;;6266313;22;20022;-87
2023/04/10 08:09:11;;;;;;;32.90;18.10;;;10.90;99.90;;;;;;6266498;22;20414;-87
2023/04/10 08:11:37;;;;;;;33.17;17.73;;;11.00;99.90;;;;;;6266063;22;20009;-87
2023/04/10 08:14:04;;;;;;;29.37;17.30;;;11.10;99.90;;;;;;6402153;22;20046;-86
2023/04/10 08:16:35;;;;;;;30.00;15.40;;;11.10;99.90;;;;;;6240985;22;20018;-87
2023/04/10 08:19:01;;;;;;;27.40;16.02;;;11.10;99.90;;;;;;6241389;22;20063;-87
2023/04/10 08:21:28;;;;;;;27.67;14.95;;;11.10;99.90;;;;;;6240807;22;20089;-85
2023/04/10 08:23:55;;;;;;;27.58;15.63;;;11.20;99.90;;;;;;6291707;22;20014;-86
2023/04/10 08:26:21;;;;;;;28.40;14.40;;;11.20;99.90;;;;;;6292060;22;20049;-86
2023/04/10 08:28:49;;;;;;;29.17;14.80;;;11.20;99.90;;;;;;6266016;22;20021;-86
2023/04/10 08:31:16;;;;;;;25.58;14.73;;;11.20;99.90;;;;;;6265862;22;20465;-85
2023/04/10 08:33:41;;;;;;;25.60;14.60;;;11.30;99.90;;;;;;6266017;22;20017;-86
2023/04/10 08:36:08;;;;;;;27.90;14.83;;;11.30;99.90;;;;;;6265751;22;20331;-87
2023/04/10 08:38:34;;;;;;;24.83;13.85;;;11.30;99.90;;;;;;6266456;22;20025;-85
2023/04/10 08:41:00;;;;;;;21.90;12.73;;;11.40;99.90;;;;;;6241326;22;20022;-86
2023/04/10 08:43:26;;;;;;;23.30;13.32;;;11.50;99.90;;;;;;6401640;22;20049;-86
2023/04/10 08:45:52;;;;;;;27.67;13.07;;;11.60;99.90;;;;;;6291535;22;20090;-86
2023/04/10 08:48:21;;;;;;;23.80;13.93;;;11.70;99.90;;;;;;6291486;22;20028;-86
2023/04/10 08:50:49;;;;;;;25.42;13.50;;;11.90;99.90;;;;;;6401641;22;20021;-86
2023/04/10 08:53:16;;;;;;;22.02;11.95;;;11.90;99.90;;;;;;6265846;22;20025;-86
2023/04/10 08:55:44;;;;;;;22.25;11.95;;;12.10;99.90;;;;;;6241293;22;20494;-86
2023/04/10 08:58:12;;;;;;;20.50;12.05;;;12.20;99.90;;;;;;6265048;22;20391;-85
2023/04/10 09:00:38;;;;;;;25.00;12.45;;;12.20;99.90;;;;;;6265423;22;20088;-86
2023/04/10 09:03:12;;;;;;;22.40;11.95;;;12.20;99.90;;;;;;6290577;22;20010;-85
2023/04/10 09:05:38;;;;;;;20.90;10.85;;;12.30;99.90;;;;;;6290686;22;20014;-85
2023/04/10 09:08:06;;;;;;;21.43;11.50;;;12.30;99.90;;;;;;6265074;22;20328;-85
2023/04/10 09:10:31;;;;;;;21.23;10.43;;;12.40;99.90;;;;;;6265165;22;20238;-85
2023/04/10 09:12:57;;;;;;;19.00;10.13;;;12.50;99.90;;;;;;6400853;22;20089;-86
2023/04/10 09:15:23;;;;;;;19.37;10.43;;;12.60;99.90;;;;;;6290938;22;20321;-85
2023/04/10 09:17:57;;;;;;;21.27;10.50;;;12.70;99.90;;;;;;6266979;22;20154;-85
2023/04/10 09:20:25;;;;;;;23.40;10.93;;;12.70;99.90;;;;;;6403086;22;20343;-88
2023/04/10 09:22:51;;;;;;;20.33;10.18;;;12.80;99.90;;;;;;6242035;22;20041;-84
2023/04/10 09:25:38;;;;;;;22.27;10.23;;;12.80;99.90;;;;;;6266658;22;20055;-85
2023/04/10 09:28:06;;;;;;;18.88;10.23;;;12.90;99.90;;;;;;6266335;22;20389;-84
2023/04/10 09:30:40;;;;;;;18.65;10.10;;;13.00;99.90;;;;;;6266891;22;20033;-84
2023/04/10 09:33:34;;;;;;;18.17;9.45;;;13.10;99.90;;;;;;6266166;22;20338;-84
2023/04/10 09:36:00;;;;;;;17.48;9.45;;;13.20;99.90;;;;;;6217701;22;20399;-84
2023/04/10 09:38:25;;;;;;;18.47;9.50;;;13.20;99.90;;;;;;6241826;22;20042;-86
2023/04/10 09:41:29;;;;;;;19.73;10.40;;;13.20;99.90;;;;;;6266539;22;20045;-86
2023/04/10 09:44:40;;;;;;;18.70;9.30;;;13.20;99.90;;;;;;6241254;22;20010;-89
2023/04/10 09:47:23;;;;;;;18.02;9.50;;;13.10;99.90;;;;;;6369736;22;20058;-87
2023/04/10 09:49:51;;;;;;;17.85;9.45;;;13.20;99.90;;;;;;6241300;22;20021;-88
2023/04/10 09:52:27;;;;;;;18.58;9.50;;;13.20;99.90;;;;;;6266280;22;20039;-86
2023/04/10 09:55:16;;;;;;;19.25;9.65;;;13.30;99.90;;;;;;6266344;22;20446;-86
2023/04/10 09:57:43;;;;;;;17.98;9.43;;;13.40;99.90;;;;;;6242223;22;20018;-89
2023/04/10 10:00:12;;;;;;;18.73;9.75;;;13.60;99.90;;;;;;6241402;22;20504;-88
2023/04/10 10:02:39;;;;;;;17.15;9.18;;;13.70;99.90;;;;;;6241909;22;20018;-87
2023/04/10 10:05:05;;;;;;;19.70;9.38;;;13.80;99.90;;;;;;6216087;22;20018;-87
2023/04/10 10:07:31;;;;;;;18.20;9.48;;;13.90;99.90;;;;;;6266743;22;20095;-89
2023/04/10 10:10:12;;;;;;;17.08;9.48;;;13.90;99.90;;;;;;6216900;22;20389;-89
2023/04/10 10:12:49;;;;;;;17.52;9.05;;;14.00;99.90;;;;;;6267055;22;20399;-85
2023/04/10 10:15:50;;;;;;;17.13;8.85;;;14.00;99.90;;;;;;6401961;22;20096;-86
2023/04/10 10:18:44;;;;;;;17.80;8.85;;;14.10;99.90;;;;;;6266068;22;20118;-83
2023/04/10 10:21:12;;;;;;;18.63;10.25;;;14.20;99.90;;;;;;6265936;22;20089;-86
2023/04/10 10:23:41;;;;;;;15.73;8.02;;;14.20;99.90;;;;;;6401386;22;20049;-84
2023/04/10 10:26:08;;;;;;;16.95;8.10;;;14.30;99.90;;;;;;6265533;22;20064;-85
2023/04/10 10:28:35;;;;;;;18.90;8.15;;;14.40;99.90;;;;;;6401723;22;20025;-85
2023/04/10 10:31:10;;;;;;;17.08;8.57;;;14.50;99.90;;;;;;6403406;22;20006;-87
2023/04/10 10:33:37;;;;;;;14.80;7.53;;;14.60;99.90;;;;;;6266023;22;20115;-92
2023/04/10 10:36:03;;;;;;;;;;;14.60;99.90;;;;;;6268668;22;20014;-91
2023/04/10 10:38:30;;;;;;;15.90;8.32;;;14.60;99.90;;;;;;6268129;22;19914;-89
2023/04/10 10:41:20;;;;;;;16.40;8.60;;;14.60;99.90;;;;;;6267844;22;20047;-80
2023/04/10 10:44:00;;;;;;;18.65;8.80;;;14.60;99.90;;;;;;6403211;22;20140;-90
2023/04/10 10:46:45;;;;;;;15.48;8.30;;;14.60;99.90;;;;;;6266265;22;20021;-85
2023/04/10 10:49:11;;;;;;;14.88;7.63;;;14.60;99.90;;;;;;6403746;22;20025;-87
2023/04/10 10:51:48;;;;;;;14.43;7.47;;;14.50;99.90;;;;;;6268217;22;20014;-78
2023/04/10 10:54:26;;;;;;;13.35;7.88;;;14.40;99.90;;;;;;6267746;22;20469;-80
2023/04/10 10:56:52;;;;;;;15.77;8.10;;;14.40;99.90;;;;;;6242004;22;20024;-89
2023/04/10 10:59:54;;;;;;;11.50;6.83;;;14.40;99.90;;;;;;6268341;22;20070;-81
2023/04/10 11:03:26;;;;;;;11.00;5.95;;;14.30;99.90;;;;;;6243190;22;20025;-88
2023/04/10 11:05:54;;;;;;;11.48;6.25;;;14.30;99.90;;;;;;6243863;22;20032;-91
2023/04/10 11:08:32;;;;;;;10.63;5.22;;;14.30;99.90;;;;;;6219154;22;20010;-93
2023/04/10 11:11:04;;;;;;;11.35;5.43;;;14.30;99.90;;;;;;6242614;22;20049;-94
2023/04/10 11:13:31;;;;;;;8.95;4.85;;;14.30;99.90;;;;;;6218235;22;20009;-93
2023/04/10 11:15:58;;;;;;;8.90;4.63;;;14.30;99.90;;;;;;6243117;22;20014;-94
2023/04/10 11:31:24;;;;;;;8.50;4.15;;;14.40;99.90;;;;;;6386590;22;20360;-93
2023/04/10 11:34:09;;;;;;;8.80;4.55;;;14.40;99.90;;;;;;6274217;22;20329;-92
2023/04/10 11:36:42;;;;;;;8.63;4.32;;;14.40;99.90;;;;;;6247358;22;20020;-96
2023/04/10 11:39:40;;;;;;;7.72;3.65;;;14.40;99.90;;;;;;6248236;22;20041;-95
2023/04/10 11:42:06;;;;;;;8.65;4.00;;;14.40;99.90;;;;;;6271273;22;20018;-91
2023/04/10 11:44:39;;;;;;;8.57;3.88;;;14.40;99.90;;;;;;6271917;22;20014;-96
2023/04/10 11:47:05;;;;;;;7.72;3.97;;;14.50;99.90;;;;;;6246819;22;20022;-95
2023/04/10 11:49:33;;;;;;;7.63;3.88;;;14.40;99.90;;;;;;6273044;22;20016;-95
2023/04/10 11:51:59;;;;;;;8.85;4.30;;;14.40;99.90;;;;;;6246072;22;20020;-92
2023/04/10 11:54:26;;;;;;;;;;;14.40;99.90;;;;;;6246210;22;20056;-93
2023/04/10 11:57:03;;;;;;;7.63;3.58;;;14.40;99.90;;;;;;6272590;22;19918;-94
2023/04/10 11:59:31;;;;;;;7.32;3.53;;;14.40;99.90;;;;;;6246532;22;20014;-94
2023/04/10 12:02:13;;;;;;;6.85;3.67;;;14.40;99.90;;;;;;6244422;22;20018;-94
2023/04/10 12:04:40;;;;;;;7.22;3.30;;;14.40;99.90;;;;;;6246726;22;20014;-91
2023/04/10 12:07:06;;;;;;;5.53;2.78;;;14.40;99.90;;;;;;6247580;22;20010;-96
2023/04/10 12:09:32;;;;;;;6.70;3.35;;;14.50;99.90;;;;;;6245061;22;20075;-92
2023/04/10 12:12:05;;;;;;;6.28;3.10;;;14.60;99.90;;;;;;6245663;22;20448;-93
2023/04/10 12:14:31;;;;;;;7.95;3.75;;;14.60;99.90;;;;;;6244259;22;20446;-95
2023/04/10 12:17:01;;;;;;;7.53;3.30;;;14.80;99.90;;;;;;6245495;22;20096;-93
2023/04/10 12:19:27;;;;;;;6.45;3.22;;;14.90;99.90;;;;;;6270986;22;20110;-95
2023/04/10 12:21:54;;;;;;;6.07;2.88;;;15.00;99.90;;;;;;6406435;22;20025;-95
2023/04/10 12:24:46;;;;;;;5.00;2.53;;;15.10;99.90;;;;;;6247313;22;20014;-93
2023/04/10 12:27:24;;;;;;;7.20;2.85;;;15.20;99.90;;;;;;6249464;22;20013;-94
2023/04/10 12:29:52;;;;;;;4.82;2.35;;;15.40;99.90;;;;;;6287631;22;20033;-91
2023/04/10 12:32:22;;;;;;;5.07;2.10;;;15.50;99.90;;;;;;6266666;22;20016;-91
2023/04/10 12:34:55;;;;;;;6.05;2.70;;;15.70;99.90;;;;;;6240069;22;20018;-93
2023/04/10 12:37:22;;;;;;;5.03;2.40;;;15.90;99.90;;;;;;6247727;22;20071;-92
2023/04/10 12:39:48;;;;;;;4.50;1.95;;;16.10;99.90;;;;;;6246788;22;20014;-93
2023/04/10 12:42:22;;;;;;;5.60;2.05;;;16.20;99.90;;;;;;6221667;22;20110;-90
2023/04/10 12:44:56;;;;;;;5.63;2.50;;;16.20;99.90;;;;;;6247435;22;20013;-94
2023/04/10 12:47:22;;;;;;;5.63;2.13;;;16.10;99.90;;;;;;6246526;22;20010;-94
2023/04/10 12:50:14;;;;;;;4.47;1.77;;;16.00;99.90;;;;;;6248257;22;20030;-96
2023/04/10 12:53:00;;;;;;;4.07;2.03;;;15.90;99.90;;;;;;6247136;22;20010;-92
2023/04/10 12:55:27;;;;;;;4.63;1.77;;;15.80;99.90;;;;;;6246873;22;20014;-92
2023/04/10 12:57:53;;;;;;;4.53;1.75;;;15.70;99.90;;;;;;6245767;22;20395;-94
2023/04/10 13:00:19;;;;;;;5.65;2.10;;;15.60;99.70;;;;;;6246210;22;20079;-91
2023/04/10 13:02:47;;;;;;;5.25;2.08;;;15.60;99.60;;;;;;6245917;22;20021;-94
2023/04/10 13:05:13;;;;;;;5.70;2.30;;;15.50;99.70;;;;;;6220643;22;20020;-92
2023/04/10 13:07:39;;;;;;;;;;;15.40;99.60;;;;;;6245939;22;20052;-94
2023/04/10 13:10:06;;;;;;;5.75;2.03;;;15.30;99.60;;;;;;6245280;22;19913;-89
2023/04/10 13:12:37;;;;;;;4.55;1.90;;;15.20;99.90;;;;;;6244184;22;20014;-93
2023/04/10 13:15:03;;;;;;;4.95;2.00;;;15.20;99.90;;;;;;6244928;22;20473;-89